CST,Max TemperatureF,Mean TemperatureF,Min TemperatureF,Max Dew PointF,MeanDew PointF,Min DewpointF,Max Humidity, Mean Humidity, Min Humidity, Max Sea Level PressureIn, Mean Sea Level PressureIn, Min Sea Level PressureIn, Max VisibilityMiles, Mean VisibilityMiles, Min VisibilityMiles, Max Wind SpeedMPH, Mean Wind SpeedMPH, Max Gust SpeedMPH,PrecipitationIn, CloudCover, Events, WindDirDegrees
2013-1-1,14,7,0,5,0,-6,78,72,62,30.28,30.23,30.16,10,10,10,9,5,,0.00,1,,314
2013-1-2,26,14,3,21,10,-2,80,74,67,30.17,30.09,30.03,10,9,7,9,3,,0.00,4,Snow,190
2013-1-3,28,18,8,25,12,3,86,77,73,30.33,30.23,30.09,10,10,4,17,11,20,0.00,5,Snow,280
2013-1-4,32,20,8,21,14,3,86,76,64,30.26,30.20,30.15,10,10,7,17,8,23,0.00,0,,243
2013-1-5,37,22,8,30,20,5,86,79,74,30.19,30.05,29.94,10,8,3,20,4,25,0.14,3,,211
2013-1-6,24,16,8,18,11,3,85,77,64,30.30,30.18,29.98,10,9,4,20,11,24,0.00,2,,284
2013-1-7,37,22,8,28,20,5,86,75,65,30.26,30.12,30.03,10,10,10,15,7,21,0.02,0,,168
2013-1-8,39,28,17,32,25,12,86,76,70,30.06,30.00,29.92,10,9,7,17,6,22,0.00,1,,167
2013-1-9,39,30,21,30,26,18,86,76,65,30.47,30.30,30.01,10,10,10,17,11,26,0.00,0,,270
2013-1-10,42,32,21,34,26,16,87,75,42,30.46,30.16,29.77,10,8,1,22,6,26,0.26,4,Snow,116
2013-1-11,48,42,35,43,37,30,93,86,81,29.77,29.65,29.56,10,3,0,17,7,23,0.02,5,Fog,148
2013-1-12,51,36,19,43,22,10,87,71,63,30.07,29.91,29.58,10,10,10,28,16,38,0.00,4,,276
2013-1-13,19,16,12,10,6,3,79,70,58,30.28,30.12,29.95,10,10,10,21,12,28,0.00,3,,295
2013-1-14,28,18,8,16,8,1,80,69,43,30.46,30.40,30.28,10,10,7,10,4,,0.00,0,,284
2013-1-15,32,23,14,16,12,9,80,66,41,30.41,30.29,30.08,10,10,7,13,3,,0.00,1,,185
2013-1-16,41,29,17,34,22,10,87,72,56,30.13,29.95,29.84,10,10,3,17,8,23,0.00,4,Snow,244
2013-1-17,30,22,15,23,13,0,80,64,29,30.42,30.34,30.14,10,10,7,14,8,21,0.00,1,,316
2013-1-18,51,38,24,32,27,18,80,66,44,30.38,30.06,29.87,10,10,10,24,8,33,0.00,1,,194
2013-1-19,51,34,17,34,27,3,76,65,50,30.13,29.88,29.76,10,10,10,37,10,52,0.00,0,,260
2013-1-20,17,12,8,7,3,0,79,65,53,30.37,30.29,30.16,10,10,10,24,15,34,0.00,3,,298
2013-1-21,12,6,0,7,-6,-15,79,59,44,30.33,30.28,30.22,10,10,5,24,17,36,0.00,1,Snow,300
2013-1-22,12,5,-2,0,-6,-9,78,58,41,30.40,30.35,30.31,10,10,10,16,8,21,0.00,3,,290
2013-1-23,28,18,8,12,5,-6,73,57,47,30.46,30.23,30.12,10,10,3,22,9,32,0.00,5,Snow,267
2013-1-24,21,12,3,9,-4,-9,61,49,30,30.64,30.49,30.26,10,10,10,14,8,20,0.00,1,,82
2013-1-25,33,22,12,18,9,3,73,56,37,30.26,30.11,29.99,10,10,10,25,12,34,0.00,3,,269
2013-1-26,30,18,5,14,7,0,79,59,40,30.39,30.31,30.26,10,10,10,14,5,,0.00,2,,132
2013-1-27,37,32,28,34,24,14,93,74,55,30.26,30.02,29.79,10,5,1,18,10,24,0.15,7,Snow,135
2013-1-28,44,40,35,39,35,30,93,85,81,29.95,29.84,29.66,10,3,0,15,5,20,0.10,8,Fog-Rain,131
2013-1-29,57,46,35,54,40,30,88,85,77,29.67,29.56,29.48,10,5,0,22,7,31,0.63,7,Fog-Rain,303
2013-1-30,35,24,14,30,21,9,93,81,73,29.75,29.51,29.35,10,4,0,24,14,36,0.01,8,Snow,326
2013-1-31,15,8,0,10,0,-8,79,73,66,30.27,29.99,29.75,10,7,2,26,19,34,0.00,7,Snow,293